Terminal Aerodrome Forecast
Issued by NWS Amarillo, TX

Home | Current Version | Previous Version | Text Only | Print | Product List | Glossary On
Versions: 1 2 3 4 5 6 7 8 9 10 11 12 13 14 15 16 17
000
FTUS44 KAMA 281300 AAA
TAFDHT
TAF AMD
KDHT 281304Z 2813/2912 19010KT P6SM VCSH FEW020 SCT100
      TEMPO 2813/2815 OVC014
     FM281800 19016KT P6SM SCT025 SCT250
     FM282000 18017G24KT 5SM TSRA BR OVC030CB
     FM290200 18012KT P6SM BKN250
     FM290900 34014KT P6SM SCT250=

USA.gov is the U.S. government's official web portal to all federal, state and local government web resources and services.